Main page
METAR-TAF:

METAR-TAF

Airports :

Brussels Airport. Zaventem

Brussels, Belgium

latitude: 50-54N, longitude: 004-32E, elevation: 55 m

Current weather observation

The report was made 37 minutes ago, at 16:50 UTC
Wind 8 kt from the East, varying between Northeast and East/Southeast
Temperature 23°C
Humidity 31%
Pressure 1003 hPa
Visibility 10 km or more
no clouds below 1500 m and no cumulonimbus

METAR: EBBR 221650Z 08008KT 050V110 CAVOK 23/05 Q1003 NOSIG

Time: 19:27 (17:27 UTC)

Forecast

The report was made 6 hours and 17 minutes ago, at 11:10 UTC
Forecast valid from 22 at 12 UTC to 23 at 18 UTC
Wind 8 kt from the East
Visibility 10 km or more
no clouds below 1500 m and no cumulonimbus

TAF: EBBR 221110Z 2212/2318 10008KT CAVOK

Weather observations and forecasts of more than 4000 airports (METAR and TAF reports).

The available stations are represented by yellow and red dots on the map.

Hover mouse over dot to see the name of the station.

Then click to see weather observations and forecasts.

To change the map : click on the green buttons with a black cross to zoom in, on the green button with a dash to zoom out, or on the green arrows for adjacent maps.


METAR-TAF: